sensor_id;sensor_type;location;lat;lon;timestamp;P1;durP1;ratioP1;P2;durP2;ratioP2
15528;SDS011;7866;52.280;9.500;2023-07-02T00:03:12;4.43;;;1.80;;
15528;SDS011;7866;52.280;9.500;2023-07-02T00:08:14;2.13;;;1.77;;
15528;SDS011;7866;52.280;9.500;2023-07-02T00:13:15;3.42;;;1.85;;
15528;SDS011;7866;52.280;9.500;2023-07-02T00:18:18;2.80;;;1.88;;
15528;SDS011;7866;52.280;9.500;2023-07-02T00:23:20;3.25;;;2.20;;
15528;SDS011;7866;52.280;9.500;2023-07-02T00:28:21;3.17;;;2.10;;
15528;SDS011;7866;52.280;9.500;2023-07-02T00:33:24;4.95;;;2.08;;
15528;SDS011;7866;52.280;9.500;2023-07-02T00:38:26;5.68;;;2.30;;
15528;SDS011;7866;52.280;9.500;2023-07-02T00:43:27;2.67;;;2.47;;
15528;SDS011;7866;52.280;9.500;2023-07-02T00:48:31;5.07;;;2.40;;
15528;SDS011;7866;52.280;9.500;2023-07-02T00:53:33;2.22;;;2.13;;
15528;SDS011;7866;52.280;9.500;2023-07-02T00:58:35;2.50;;;2.30;;
15528;SDS011;7866;52.280;9.500;2023-07-02T01:03:50;3.45;;;2.28;;
15528;SDS011;7866;52.280;9.500;2023-07-02T01:08:54;5.03;;;2.35;;
15528;SDS011;7866;52.280;9.500;2023-07-02T01:13:58;2.38;;;2.20;;
15528;SDS011;7866;52.280;9.500;2023-07-02T01:19:04;3.03;;;2.50;;
15528;SDS011;7866;52.280;9.500;2023-07-02T01:24:13;4.72;;;2.47;;
15528;SDS011;7866;52.280;9.500;2023-07-02T01:29:15;4.25;;;2.20;;
15528;SDS011;7866;52.280;9.500;2023-07-02T01:34:18;3.83;;;2.92;;
15528;SDS011;7866;52.280;9.500;2023-07-02T01:39:21;3.90;;;2.65;;
15528;SDS011;7866;52.280;9.500;2023-07-02T01:44:23;3.90;;;3.03;;
15528;SDS011;7866;52.280;9.500;2023-07-02T01:49:24;3.78;;;2.72;;
15528;SDS011;7866;52.280;9.500;2023-07-02T01:54:28;4.63;;;3.20;;
15528;SDS011;7866;52.280;9.500;2023-07-02T01:59:29;4.55;;;3.72;;
15528;SDS011;7866;52.280;9.500;2023-07-02T02:04:35;3.50;;;3.20;;
15528;SDS011;7866;52.280;9.500;2023-07-02T02:09:50;5.47;;;4.00;;
15528;SDS011;7866;52.280;9.500;2023-07-02T02:14:52;5.20;;;3.78;;
15528;SDS011;7866;52.280;9.500;2023-07-02T02:19:53;4.30;;;3.90;;
15528;SDS011;7866;52.280;9.500;2023-07-02T02:24:56;7.18;;;4.40;;
15528;SDS011;7866;52.280;9.500;2023-07-02T02:29:58;5.88;;;4.38;;
15528;SDS011;7866;52.280;9.500;2023-07-02T02:35:00;6.13;;;4.10;;
15528;SDS011;7866;52.280;9.500;2023-07-02T02:40:03;6.40;;;4.70;;
15528;SDS011;7866;52.280;9.500;2023-07-02T02:45:06;5.55;;;4.90;;
15528;SDS011;7866;52.280;9.500;2023-07-02T02:50:08;5.68;;;4.43;;
15528;SDS011;7866;52.280;9.500;2023-07-02T02:55:12;5.85;;;3.80;;
15528;SDS011;7866;52.280;9.500;2023-07-02T03:00:14;4.25;;;3.80;;
15528;SDS011;7866;52.280;9.500;2023-07-02T03:05:17;7.65;;;4.15;;
15528;SDS011;7866;52.280;9.500;2023-07-02T03:10:20;4.32;;;3.70;;
15528;SDS011;7866;52.280;9.500;2023-07-02T03:15:21;5.63;;;4.15;;
15528;SDS011;7866;52.280;9.500;2023-07-02T03:20:23;5.60;;;4.38;;
15528;SDS011;7866;52.280;9.500;2023-07-02T03:25:26;4.35;;;3.90;;
15528;SDS011;7866;52.280;9.500;2023-07-02T03:30:28;5.55;;;3.38;;
15528;SDS011;7866;52.280;9.500;2023-07-02T03:35:29;3.90;;;3.60;;
15528;SDS011;7866;52.280;9.500;2023-07-02T03:40:32;5.30;;;4.15;;
15528;SDS011;7866;52.280;9.500;2023-07-02T03:45:34;6.07;;;5.47;;
15528;SDS011;7866;52.280;9.500;2023-07-02T03:50:35;6.40;;;5.80;;
15528;SDS011;7866;52.280;9.500;2023-07-02T03:55:38;7.22;;;6.00;;
15528;SDS011;7866;52.280;9.500;2023-07-02T04:00:40;7.63;;;6.93;;
15528;SDS011;7866;52.280;9.500;2023-07-02T04:05:44;8.70;;;5.45;;
15528;SDS011;7866;52.280;9.500;2023-07-02T04:10:47;8.85;;;5.57;;
15528;SDS011;7866;52.280;9.500;2023-07-02T04:15:48;6.55;;;4.60;;
15528;SDS011;7866;52.280;9.500;2023-07-02T04:20:51;6.43;;;4.75;;
15528;SDS011;7866;52.280;9.500;2023-07-02T04:25:54;7.68;;;4.95;;
15528;SDS011;7866;52.280;9.500;2023-07-02T04:30:56;8.88;;;5.22;;
15528;SDS011;7866;52.280;9.500;2023-07-02T04:35:57;10.80;;;5.93;;
15528;SDS011;7866;52.280;9.500;2023-07-02T04:41:00;8.73;;;4.78;;
15528;SDS011;7866;52.280;9.500;2023-07-02T04:46:05;7.60;;;5.35;;
15528;SDS011;7866;52.280;9.500;2023-07-02T04:51:07;8.45;;;5.28;;
15528;SDS011;7866;52.280;9.500;2023-07-02T04:56:10;8.57;;;5.90;;
15528;SDS011;7866;52.280;9.500;2023-07-02T05:01:12;10.88;;;5.80;;
15528;SDS011;7866;52.280;9.500;2023-07-02T05:06:14;6.63;;;5.07;;
15528;SDS011;7866;52.280;9.500;2023-07-02T05:11:17;13.02;;;6.22;;
15528;SDS011;7866;52.280;9.500;2023-07-02T05:16:18;8.70;;;5.68;;
15528;SDS011;7866;52.280;9.500;2023-07-02T05:21:20;9.23;;;5.38;;
15528;SDS011;7866;52.280;9.500;2023-07-02T05:26:23;10.38;;;5.50;;
15528;SDS011;7866;52.280;9.500;2023-07-02T05:31:26;10.55;;;6.05;;
15528;SDS011;7866;52.280;9.500;2023-07-02T05:36:27;9.48;;;5.25;;
15528;SDS011;7866;52.280;9.500;2023-07-02T05:41:30;8.35;;;4.93;;
15528;SDS011;7866;52.280;9.500;2023-07-02T05:46:32;7.85;;;4.50;;
15528;SDS011;7866;52.280;9.500;2023-07-02T05:51:34;9.00;;;5.45;;
15528;SDS011;7866;52.280;9.500;2023-07-02T05:56:36;9.30;;;5.28;;
15528;SDS011;7866;52.280;9.500;2023-07-02T06:01:38;9.05;;;5.20;;
15528;SDS011;7866;52.280;9.500;2023-07-02T06:06:40;8.93;;;4.85;;
15528;SDS011;7866;52.280;9.500;2023-07-02T06:11:43;12.32;;;5.20;;
15528;SDS011;7866;52.280;9.500;2023-07-02T06:16:44;8.60;;;5.45;;
15528;SDS011;7866;52.280;9.500;2023-07-02T06:21:46;14.48;;;6.18;;
15528;SDS011;7866;52.280;9.500;2023-07-02T06:26:49;11.40;;;5.28;;
15528;SDS011;7866;52.280;9.500;2023-07-02T06:31:51;8.23;;;4.70;;
15528;SDS011;7866;52.280;9.500;2023-07-02T06:36:52;9.68;;;5.20;;
15528;SDS011;7866;52.280;9.500;2023-07-02T06:41:55;10.18;;;5.18;;
15528;SDS011;7866;52.280;9.500;2023-07-02T06:46:57;8.40;;;5.07;;
15528;SDS011;7866;52.280;9.500;2023-07-02T06:51:59;10.63;;;5.18;;
15528;SDS011;7866;52.280;9.500;2023-07-02T06:57:02;9.60;;;5.90;;
15528;SDS011;7866;52.280;9.500;2023-07-02T07:02:04;12.60;;;6.07;;
15528;SDS011;7866;52.280;9.500;2023-07-02T07:07:05;13.77;;;5.90;;
15528;SDS011;7866;52.280;9.500;2023-07-02T07:12:09;13.13;;;6.53;;
15528;SDS011;7866;52.280;9.500;2023-07-02T07:17:10;11.30;;;6.15;;
15528;SDS011;7866;52.280;9.500;2023-07-02T07:22:12;14.13;;;6.20;;
15528;SDS011;7866;52.280;9.500;2023-07-02T07:27:15;13.38;;;6.65;;
15528;SDS011;7866;52.280;9.500;2023-07-02T07:32:16;12.85;;;6.57;;
15528;SDS011;7866;52.280;9.500;2023-07-02T07:37:18;13.55;;;7.07;;
15528;SDS011;7866;52.280;9.500;2023-07-02T07:42:21;13.32;;;6.68;;
15528;SDS011;7866;52.280;9.500;2023-07-02T07:47:22;12.98;;;6.85;;
15528;SDS011;7866;52.280;9.500;2023-07-02T07:52:24;19.30;;;6.55;;
15528;SDS011;7866;52.280;9.500;2023-07-02T07:57:27;13.05;;;6.72;;
15528;SDS011;7866;52.280;9.500;2023-07-02T08:02:28;15.25;;;6.93;;
15528;SDS011;7866;52.280;9.500;2023-07-02T08:07:30;13.68;;;6.55;;
15528;SDS011;7866;52.280;9.500;2023-07-02T08:12:34;15.18;;;6.47;;
15528;SDS011;7866;52.280;9.500;2023-07-02T08:17:35;11.73;;;6.30;;
15528;SDS011;7866;52.280;9.500;2023-07-02T08:22:37;14.52;;;6.30;;
15528;SDS011;7866;52.280;9.500;2023-07-02T08:27:40;11.38;;;6.43;;
15528;SDS011;7866;52.280;9.500;2023-07-02T08:32:42;14.13;;;6.78;;
15528;SDS011;7866;52.280;9.500;2023-07-02T08:37:43;12.25;;;6.30;;
15528;SDS011;7866;52.280;9.500;2023-07-02T08:42:46;12.35;;;6.93;;
15528;SDS011;7866;52.280;9.500;2023-07-02T08:47:48;13.57;;;6.63;;
15528;SDS011;7866;52.280;9.500;2023-07-02T08:52:50;13.57;;;6.10;;
15528;SDS011;7866;52.280;9.500;2023-07-02T08:57:56;15.75;;;7.22;;
15528;SDS011;7866;52.280;9.500;2023-07-02T09:03:10;9.07;;;5.93;;
15528;SDS011;7866;52.280;9.500;2023-07-02T09:08:12;12.43;;;6.28;;
15528;SDS011;7866;52.280;9.500;2023-07-02T09:13:25;13.88;;;7.00;;
15528;SDS011;7866;52.280;9.500;2023-07-02T09:18:27;10.10;;;6.95;;
15528;SDS011;7866;52.280;9.500;2023-07-02T09:23:33;13.18;;;6.72;;
15528;SDS011;7866;52.280;9.500;2023-07-02T09:28:37;14.13;;;7.00;;
15528;SDS011;7866;52.280;9.500;2023-07-02T09:33:39;11.98;;;6.40;;
15528;SDS011;7866;52.280;9.500;2023-07-02T09:38:41;15.63;;;7.25;;
15528;SDS011;7866;52.280;9.500;2023-07-02T09:43:44;11.73;;;6.32;;
15528;SDS011;7866;52.280;9.500;2023-07-02T09:48:46;9.45;;;6.30;;
15528;SDS011;7866;52.280;9.500;2023-07-02T09:53:48;9.13;;;5.18;;
15528;SDS011;7866;52.280;9.500;2023-07-02T09:58:51;8.65;;;5.57;;
15528;SDS011;7866;52.280;9.500;2023-07-02T10:03:53;8.20;;;5.40;;
15528;SDS011;7866;52.280;9.500;2023-07-02T10:08:54;16.17;;;8.98;;
15528;SDS011;7866;52.280;9.500;2023-07-02T10:14:00;9.35;;;5.82;;
15528;SDS011;7866;52.280;9.500;2023-07-02T10:19:08;9.23;;;6.07;;
15528;SDS011;7866;52.280;9.500;2023-07-02T10:24:11;7.55;;;5.35;;
15528;SDS011;7866;52.280;9.500;2023-07-02T10:29:19;8.20;;;5.28;;
15528;SDS011;7866;52.280;9.500;2023-07-02T10:34:28;8.90;;;5.57;;
15528;SDS011;7866;52.280;9.500;2023-07-02T10:39:31;8.25;;;5.40;;
15528;SDS011;7866;52.280;9.500;2023-07-02T10:44:34;9.63;;;5.63;;
15528;SDS011;7866;52.280;9.500;2023-07-02T10:49:47;8.85;;;5.53;;
15528;SDS011;7866;52.280;9.500;2023-07-02T10:54:49;11.40;;;5.88;;
15528;SDS011;7866;52.280;9.500;2023-07-02T10:59:52;10.35;;;5.10;;
15528;SDS011;7866;52.280;9.500;2023-07-02T11:04:53;10.32;;;5.38;;
15528;SDS011;7866;52.280;9.500;2023-07-02T11:09:55;6.97;;;4.63;;
15528;SDS011;7866;52.280;9.500;2023-07-02T11:15:07;8.57;;;5.18;;
15528;SDS011;7866;52.280;9.500;2023-07-02T11:20:09;9.07;;;5.68;;
15528;SDS011;7866;52.280;9.500;2023-07-02T11:25:13;7.20;;;4.85;;
15528;SDS011;7866;52.280;9.500;2023-07-02T11:30:17;9.88;;;5.57;;
15528;SDS011;7866;52.280;9.500;2023-07-02T11:35:18;9.88;;;5.10;;
15528;SDS011;7866;52.280;9.500;2023-07-02T11:40:20;7.85;;;5.25;;
15528;SDS011;7866;52.280;9.500;2023-07-02T11:45:23;9.80;;;5.03;;
15528;SDS011;7866;52.280;9.500;2023-07-02T11:50:25;7.90;;;4.93;;
15528;SDS011;7866;52.280;9.500;2023-07-02T11:55:26;10.32;;;5.03;;
15528;SDS011;7866;52.280;9.500;2023-07-02T12:00:29;6.88;;;4.70;;
15528;SDS011;7866;52.280;9.500;2023-07-02T12:05:31;6.60;;;5.15;;
15528;SDS011;7866;52.280;9.500;2023-07-02T12:10:33;7.97;;;5.20;;
15528;SDS011;7866;52.280;9.500;2023-07-02T12:15:36;9.27;;;4.93;;
15528;SDS011;7866;52.280;9.500;2023-07-02T12:20:38;8.60;;;5.15;;
15528;SDS011;7866;52.280;9.500;2023-07-02T12:25:40;7.45;;;5.55;;
15528;SDS011;7866;52.280;9.500;2023-07-02T12:30:43;14.05;;;5.80;;
15528;SDS011;7866;52.280;9.500;2023-07-02T12:35:45;9.02;;;5.22;;
15528;SDS011;7866;52.280;9.500;2023-07-02T12:40:46;7.82;;;5.05;;
15528;SDS011;7866;52.280;9.500;2023-07-02T12:45:50;7.45;;;4.85;;
15528;SDS011;7866;52.280;9.500;2023-07-02T12:50:54;10.05;;;5.25;;
15528;SDS011;7866;52.280;9.500;2023-07-02T12:55:57;11.07;;;5.47;;
15528;SDS011;7866;52.280;9.500;2023-07-02T13:01:00;7.68;;;5.03;;
15528;SDS011;7866;52.280;9.500;2023-07-02T13:06:01;9.80;;;5.05;;
15528;SDS011;7866;52.280;9.500;2023-07-02T13:11:03;10.30;;;5.55;;
15528;SDS011;7866;52.280;9.500;2023-07-02T13:16:06;9.13;;;5.35;;
15528;SDS011;7866;52.280;9.500;2023-07-02T13:21:08;7.57;;;4.93;;
15528;SDS011;7866;52.280;9.500;2023-07-02T13:26:09;7.93;;;5.00;;
15528;SDS011;7866;52.280;9.500;2023-07-02T13:31:12;11.02;;;4.82;;
15528;SDS011;7866;52.280;9.500;2023-07-02T13:36:14;10.10;;;4.80;;
15528;SDS011;7866;52.280;9.500;2023-07-02T13:41:16;10.15;;;4.95;;
15528;SDS011;7866;52.280;9.500;2023-07-02T13:46:19;7.55;;;5.00;;
15528;SDS011;7866;52.280;9.500;2023-07-02T13:51:21;10.95;;;5.43;;
15528;SDS011;7866;52.280;9.500;2023-07-02T13:56:22;7.45;;;4.35;;
15528;SDS011;7866;52.280;9.500;2023-07-02T14:01:25;6.63;;;3.95;;
15528;SDS011;7866;52.280;9.500;2023-07-02T14:06:27;7.18;;;4.43;;
15528;SDS011;7866;52.280;9.500;2023-07-02T14:11:29;8.70;;;4.60;;
15528;SDS011;7866;52.280;9.500;2023-07-02T14:16:32;6.85;;;4.07;;
15528;SDS011;7866;52.280;9.500;2023-07-02T14:21:34;6.88;;;4.38;;
15528;SDS011;7866;52.280;9.500;2023-07-02T14:26:36;7.75;;;4.15;;
15528;SDS011;7866;52.280;9.500;2023-07-02T14:31:39;6.82;;;4.00;;
15528;SDS011;7866;52.280;9.500;2023-07-02T14:36:40;6.63;;;3.90;;
15528;SDS011;7866;52.280;9.500;2023-07-02T14:41:42;8.60;;;4.40;;
15528;SDS011;7866;52.280;9.500;2023-07-02T14:46:45;7.95;;;4.50;;
15528;SDS011;7866;52.280;9.500;2023-07-02T14:51:47;8.50;;;5.75;;
15528;SDS011;7866;52.280;9.500;2023-07-02T14:56:48;6.70;;;3.90;;
15528;SDS011;7866;52.280;9.500;2023-07-02T15:01:51;6.30;;;4.10;;
15528;SDS011;7866;52.280;9.500;2023-07-02T15:06:53;6.05;;;4.10;;
15528;SDS011;7866;52.280;9.500;2023-07-02T15:11:55;7.15;;;4.22;;
15528;SDS011;7866;52.280;9.500;2023-07-02T15:16:58;11.05;;;4.20;;
15528;SDS011;7866;52.280;9.500;2023-07-02T15:21:59;4.72;;;3.67;;
15528;SDS011;7866;52.280;9.500;2023-07-02T15:27:01;6.13;;;3.92;;
15528;SDS011;7866;52.280;9.500;2023-07-02T15:32:04;5.05;;;3.60;;
15528;SDS011;7866;52.280;9.500;2023-07-02T15:37:06;4.55;;;3.40;;
15528;SDS011;7866;52.280;9.500;2023-07-02T15:42:08;5.70;;;3.40;;
15528;SDS011;7866;52.280;9.500;2023-07-02T15:47:11;5.20;;;3.35;;
15528;SDS011;7866;52.280;9.500;2023-07-02T15:52:12;6.80;;;3.75;;
15528;SDS011;7866;52.280;9.500;2023-07-02T15:57:14;5.60;;;3.65;;
15528;SDS011;7866;52.280;9.500;2023-07-02T16:02:17;4.28;;;3.50;;
15528;SDS011;7866;52.280;9.500;2023-07-02T16:07:19;6.68;;;3.60;;
15528;SDS011;7866;52.280;9.500;2023-07-02T16:12:20;5.97;;;3.70;;
15528;SDS011;7866;52.280;9.500;2023-07-02T16:17:23;5.97;;;4.07;;
15528;SDS011;7866;52.280;9.500;2023-07-02T16:22:25;6.57;;;3.90;;
15528;SDS011;7866;52.280;9.500;2023-07-02T16:27:26;8.10;;;4.00;;
15528;SDS011;7866;52.280;9.500;2023-07-02T16:32:29;6.85;;;3.78;;
15528;SDS011;7866;52.280;9.500;2023-07-02T16:37:31;5.70;;;3.72;;
15528;SDS011;7866;52.280;9.500;2023-07-02T16:42:33;5.57;;;3.70;;
15528;SDS011;7866;52.280;9.500;2023-07-02T16:47:36;7.65;;;3.92;;
15528;SDS011;7866;52.280;9.500;2023-07-02T16:52:37;7.38;;;4.03;;
15528;SDS011;7866;52.280;9.500;2023-07-02T16:57:39;5.47;;;3.58;;
15528;SDS011;7866;52.280;9.500;2023-07-02T17:02:42;4.57;;;3.42;;
15528;SDS011;7866;52.280;9.500;2023-07-02T17:07:44;5.57;;;3.95;;
15528;SDS011;7866;52.280;9.500;2023-07-02T17:12:45;5.38;;;3.88;;
15528;SDS011;7866;52.280;9.500;2023-07-02T17:17:48;6.32;;;3.65;;
15528;SDS011;7866;52.280;9.500;2023-07-02T17:22:51;6.00;;;3.28;;
15528;SDS011;7866;52.280;9.500;2023-07-02T17:27:53;5.93;;;3.50;;
15528;SDS011;7866;52.280;9.500;2023-07-02T17:32:56;3.92;;;3.03;;
15528;SDS011;7866;52.280;9.500;2023-07-02T17:37:59;4.68;;;3.70;;
15528;SDS011;7866;52.280;9.500;2023-07-02T17:43:01;5.15;;;3.70;;
15528;SDS011;7866;52.280;9.500;2023-07-02T17:48:04;4.10;;;3.00;;
15528;SDS011;7866;52.280;9.500;2023-07-02T17:53:06;5.18;;;3.08;;
15528;SDS011;7866;52.280;9.500;2023-07-02T17:58:07;4.97;;;2.90;;
15528;SDS011;7866;52.280;9.500;2023-07-02T18:03:10;3.78;;;3.25;;
15528;SDS011;7866;52.280;9.500;2023-07-02T18:08:12;6.10;;;3.10;;
15528;SDS011;7866;52.280;9.500;2023-07-02T18:13:14;7.38;;;3.53;;
15528;SDS011;7866;52.280;9.500;2023-07-02T18:18:18;3.10;;;2.75;;
15528;SDS011;7866;52.280;9.500;2023-07-02T18:23:20;4.93;;;2.95;;
15528;SDS011;7866;52.280;9.500;2023-07-02T18:28:24;5.45;;;3.30;;
15528;SDS011;7866;52.280;9.500;2023-07-02T18:33:28;4.97;;;3.25;;
15528;SDS011;7866;52.280;9.500;2023-07-02T18:38:30;5.00;;;3.10;;
15528;SDS011;7866;52.280;9.500;2023-07-02T18:43:32;4.97;;;2.85;;
15528;SDS011;7866;52.280;9.500;2023-07-02T18:48:36;4.70;;;2.78;;
15528;SDS011;7866;52.280;9.500;2023-07-02T18:53:38;4.15;;;2.80;;
15528;SDS011;7866;52.280;9.500;2023-07-02T18:58:40;6.32;;;2.72;;
15528;SDS011;7866;52.280;9.500;2023-07-02T19:03:45;6.90;;;2.90;;
15528;SDS011;7866;52.280;9.500;2023-07-02T19:08:46;5.38;;;3.25;;
15528;SDS011;7866;52.280;9.500;2023-07-02T19:13:48;8.32;;;3.10;;
15528;SDS011;7866;52.280;9.500;2023-07-02T19:18:51;5.88;;;3.00;;
15528;SDS011;7866;52.280;9.500;2023-07-02T19:23:52;4.47;;;2.95;;
15528;SDS011;7866;52.280;9.500;2023-07-02T19:28:58;6.90;;;3.20;;
15528;SDS011;7866;52.280;9.500;2023-07-02T19:34:01;3.75;;;2.90;;
15528;SDS011;7866;52.280;9.500;2023-07-02T19:39:02;4.50;;;2.70;;
15528;SDS011;7866;52.280;9.500;2023-07-02T19:44:04;4.07;;;2.80;;
15528;SDS011;7866;52.280;9.500;2023-07-02T19:49:07;4.55;;;3.00;;
15528;SDS011;7866;52.280;9.500;2023-07-02T19:54:10;5.00;;;2.88;;
15528;SDS011;7866;52.280;9.500;2023-07-02T19:59:11;3.67;;;2.92;;
15528;SDS011;7866;52.280;9.500;2023-07-02T20:04:15;9.20;;;4.03;;
15528;SDS011;7866;52.280;9.500;2023-07-02T20:09:20;4.43;;;3.30;;
15528;SDS011;7866;52.280;9.500;2023-07-02T20:14:22;5.00;;;2.65;;
15528;SDS011;7866;52.280;9.500;2023-07-02T20:19:25;5.93;;;2.88;;
15528;SDS011;7866;52.280;9.500;2023-07-02T20:24:27;6.72;;;3.70;;
15528;SDS011;7866;52.280;9.500;2023-07-02T20:29:29;5.03;;;3.10;;
15528;SDS011;7866;52.280;9.500;2023-07-02T20:34:33;6.18;;;3.30;;
15528;SDS011;7866;52.280;9.500;2023-07-02T20:39:35;3.78;;;2.95;;
15528;SDS011;7866;52.280;9.500;2023-07-02T20:44:36;4.32;;;2.97;;
15528;SDS011;7866;52.280;9.500;2023-07-02T20:49:40;6.65;;;3.03;;
15528;SDS011;7866;52.280;9.500;2023-07-02T20:54:41;4.43;;;3.22;;
15528;SDS011;7866;52.280;9.500;2023-07-02T20:59:46;6.13;;;3.03;;
15528;SDS011;7866;52.280;9.500;2023-07-02T21:04:49;4.10;;;2.97;;
15528;SDS011;7866;52.280;9.500;2023-07-02T21:09:56;6.72;;;3.58;;
15528;SDS011;7866;52.280;9.500;2023-07-02T21:14:57;4.75;;;3.17;;
15528;SDS011;7866;52.280;9.500;2023-07-02T21:20:01;5.32;;;2.85;;
15528;SDS011;7866;52.280;9.500;2023-07-02T21:25:04;3.00;;;2.70;;
15528;SDS011;7866;52.280;9.500;2023-07-02T21:30:07;5.07;;;2.97;;
15528;SDS011;7866;52.280;9.500;2023-07-02T21:35:10;5.70;;;2.80;;
15528;SDS011;7866;52.280;9.500;2023-07-02T21:40:12;3.90;;;2.90;;
15528;SDS011;7866;52.280;9.500;2023-07-02T21:45:14;6.93;;;3.25;;
15528;SDS011;7866;52.280;9.500;2023-07-02T21:50:17;5.75;;;3.08;;
15528;SDS011;7866;52.280;9.500;2023-07-02T21:55:19;4.35;;;3.05;;
15528;SDS011;7866;52.280;9.500;2023-07-02T22:00:20;6.00;;;2.92;;
15528;SDS011;7866;52.280;9.500;2023-07-02T22:05:23;5.57;;;3.10;;
15528;SDS011;7866;52.280;9.500;2023-07-02T22:10:26;5.78;;;3.30;;
15528;SDS011;7866;52.280;9.500;2023-07-02T22:15:30;4.47;;;2.90;;
15528;SDS011;7866;52.280;9.500;2023-07-02T22:20:34;6.15;;;3.05;;
15528;SDS011;7866;52.280;9.500;2023-07-02T22:25:37;6.90;;;3.63;;
15528;SDS011;7866;52.280;9.500;2023-07-02T22:30:42;5.65;;;3.35;;
15528;SDS011;7866;52.280;9.500;2023-07-02T22:35:45;4.30;;;2.85;;
15528;SDS011;7866;52.280;9.500;2023-07-02T22:40:46;4.00;;;3.13;;
15528;SDS011;7866;52.280;9.500;2023-07-02T22:45:48;5.65;;;2.97;;
15528;SDS011;7866;52.280;9.500;2023-07-02T22:50:51;4.43;;;3.17;;
15528;SDS011;7866;52.280;9.500;2023-07-02T22:55:53;4.28;;;3.08;;
15528;SDS011;7866;52.280;9.500;2023-07-02T23:00:54;4.78;;;3.20;;
15528;SDS011;7866;52.280;9.500;2023-07-02T23:05:59;6.95;;;3.63;;
15528;SDS011;7866;52.280;9.500;2023-07-02T23:11:01;5.60;;;3.35;;
15528;SDS011;7866;52.280;9.500;2023-07-02T23:16:03;4.97;;;3.05;;
15528;SDS011;7866;52.280;9.500;2023-07-02T23:21:08;4.75;;;3.22;;
15528;SDS011;7866;52.280;9.500;2023-07-02T23:26:10;7.07;;;3.90;;
15528;SDS011;7866;52.280;9.500;2023-07-02T23:31:18;4.35;;;3.17;;
15528;SDS011;7866;52.280;9.500;2023-07-02T23:36:21;4.22;;;3.15;;
15528;SDS011;7866;52.280;9.500;2023-07-02T23:41:22;4.93;;;3.40;;
15528;SDS011;7866;52.280;9.500;2023-07-02T23:46:24;6.90;;;3.65;;
15528;SDS011;7866;52.280;9.500;2023-07-02T23:51:27;7.55;;;3.60;;
15528;SDS011;7866;52.280;9.500;2023-07-02T23:56:29;5.80;;;3.33;;
